Terminal Aerodrome Forecast
Issued by NWS Cleveland, OH

Home | Current Version | Previous Version | Text Only | Print | Product List | Glossary On
Versions: 1 2 3 4 5 6 7 8 9 10 11 12 13 14
000
FTUS41 KCLE 090251 AAA
TAFCAK
TAF AMD
KCAK 090251Z 0903/0924 27012G20KT 6SM -SN SCT015 OVC025
     FM090600 27014KT 3SM -SHSN SCT008 OVC010=

USA.gov is the U.S. government's official web portal to all federal, state and local government web resources and services.